createdAt,value
2023-12-27T00:00:23.751Z,986.2378
2023-12-27T00:01:23.739Z,986.2634
2023-12-27T00:02:23.715Z,986.2634
2023-12-27T00:03:23.777Z,986.2941
2023-12-27T00:04:23.862Z,986.2941
2023-12-27T00:05:23.706Z,986.3337
2023-12-27T00:06:23.757Z,986.3337
2023-12-27T00:07:23.707Z,986.3511
2023-12-27T00:08:23.706Z,986.3511
2023-12-27T00:09:23.785Z,986.3511
2023-12-27T00:10:23.708Z,986.3781
2023-12-27T00:11:23.708Z,986.3781
2023-12-27T00:12:23.741Z,986.4549
2023-12-27T00:13:23.704Z,986.4549
2023-12-27T00:14:23.702Z,986.4805
2023-12-27T00:15:23.749Z,986.4805
2023-12-27T00:16:23.712Z,986.5033
2023-12-27T00:17:23.703Z,986.5033
2023-12-27T00:18:23.838Z,986.5325
2023-12-27T00:19:23.770Z,986.5325
2023-12-27T00:20:23.729Z,986.5574
2023-12-27T00:21:23.755Z,986.5574
2023-12-27T00:22:23.709Z,986.5574
2023-12-27T00:23:23.707Z,986.59
2023-12-27T00:24:23.819Z,986.59
2023-12-27T00:25:23.709Z,986.6171
2023-12-27T00:26:23.712Z,986.6171
2023-12-27T00:27:23.765Z,986.6616
2023-12-27T00:28:23.710Z,986.6616
2023-12-27T00:29:23.713Z,986.7031
2023-12-27T00:30:23.811Z,986.7031
2023-12-27T00:31:23.749Z,986.7178
2023-12-27T00:32:23.711Z,986.7178
2023-12-27T00:33:23.853Z,986.7297
2023-12-27T00:34:23.891Z,986.7297
2023-12-27T00:35:23.722Z,986.76
2023-12-27T00:36:23.722Z,986.76
2023-12-27T00:37:23.708Z,986.76
2023-12-27T00:38:23.709Z,986.7967
2023-12-27T00:39:23.721Z,986.7967
2023-12-27T00:40:23.710Z,986.8617
2023-12-27T00:41:23.704Z,986.8617
2023-12-27T00:42:23.832Z,986.9019
2023-12-27T00:43:23.718Z,986.9019
2023-12-27T00:44:23.712Z,986.9705
2023-12-27T00:45:23.791Z,986.9705
2023-12-27T00:46:23.713Z,987.0293
2023-12-27T00:47:23.742Z,987.0293
2023-12-27T00:48:23.812Z,987.0581
2023-12-27T00:49:23.819Z,987.0581
2023-12-27T00:50:23.727Z,987.0897
2023-12-27T00:51:23.725Z,987.0897
2023-12-27T00:52:23.729Z,987.1117
2023-12-27T00:53:23.710Z,987.1117
2023-12-27T00:54:23.773Z,987.1531
2023-12-27T00:55:23.706Z,987.1531
2023-12-27T00:56:23.708Z,987.1639
2023-12-27T00:57:23.776Z,987.1639
2023-12-27T00:58:23.712Z,987.1953
2023-12-27T00:59:23.720Z,987.1953
2023-12-27T01:00:23.765Z,987.2277
2023-12-27T01:01:23.722Z,987.2277
2023-12-27T01:02:23.705Z,987.2277
2023-12-27T01:03:23.804Z,987.222
2023-12-27T01:04:23.806Z,987.222
2023-12-27T01:05:23.717Z,987.1872
2023-12-27T01:06:23.757Z,987.1872
2023-12-27T01:07:23.713Z,987.1758
2023-12-27T01:08:23.714Z,987.1758
2023-12-27T01:09:23.754Z,987.1956
2023-12-27T01:10:23.719Z,987.1956
2023-12-27T01:11:23.712Z,987.2093
2023-12-27T01:12:23.727Z,987.2093
2023-12-27T01:13:23.721Z,987.2245
2023-12-27T01:14:23.717Z,987.2245
2023-12-27T01:15:23.749Z,987.2389
2023-12-27T01:16:23.712Z,987.2389
2023-12-27T01:17:23.781Z,987.247
2023-12-27T01:18:23.834Z,987.247
2023-12-27T01:19:23.780Z,987.252
2023-12-27T01:20:23.719Z,987.252
2023-12-27T01:21:23.778Z,987.2561
2023-12-27T01:22:23.716Z,987.2561
2023-12-27T01:23:23.733Z,987.2489
2023-12-27T01:24:23.762Z,987.2489
2023-12-27T01:25:23.716Z,987.2115
2023-12-27T01:26:23.722Z,987.2115
2023-12-27T01:27:23.749Z,987.2004
2023-12-27T01:28:23.720Z,987.2004
2023-12-27T01:29:23.720Z,987.1987
2023-12-27T01:30:23.806Z,987.1987
2023-12-27T01:31:23.762Z,987.2053
2023-12-27T01:32:23.830Z,987.2053
2023-12-27T01:33:23.862Z,987.2366
2023-12-27T01:34:24.414Z,987.2366
2023-12-27T01:35:23.780Z,987.2759
2023-12-27T01:36:23.825Z,987.2759
2023-12-27T01:37:23.738Z,987.3384
2023-12-27T01:38:23.720Z,987.3384
2023-12-27T01:39:23.772Z,987.3893
2023-12-27T01:40:23.720Z,987.3893
2023-12-27T01:41:23.732Z,987.3998
2023-12-27T01:42:23.761Z,987.3998
2023-12-27T01:43:23.725Z,987.4078
2023-12-27T01:44:23.732Z,987.4078
2023-12-27T01:45:23.754Z,987.445
2023-12-27T01:46:23.726Z,987.445
2023-12-27T01:47:23.723Z,987.445
2023-12-27T01:48:23.858Z,987.5101
2023-12-27T01:49:23.805Z,987.5101
2023-12-27T01:50:23.733Z,987.5833
2023-12-27T01:51:23.792Z,987.5833
2023-12-27T01:52:23.734Z,987.616
2023-12-27T01:53:23.733Z,987.616
2023-12-27T01:54:23.783Z,987.6355
2023-12-27T01:55:23.750Z,987.6355
2023-12-27T01:56:23.733Z,987.6671
2023-12-27T01:57:23.788Z,987.6671
2023-12-27T01:58:23.768Z,987.6976
2023-12-27T01:59:23.739Z,987.6976
2023-12-27T02:00:23.822Z,987.7006
2023-12-27T02:01:23.813Z,987.7006
2023-12-27T02:02:23.733Z,987.7006
2023-12-27T02:03:23.782Z,987.7006
2023-12-27T02:04:23.828Z,987.6944
2023-12-27T02:05:23.824Z,987.6944
2023-12-27T02:06:23.825Z,987.6944
2023-12-27T02:07:30.199Z,987.6641
2023-12-27T02:08:25.140Z,987.6641
2023-12-27T02:09:23.792Z,987.5947
2023-12-27T02:10:23.734Z,987.5947
2023-12-27T02:11:23.754Z,987.562
2023-12-27T02:12:23.752Z,987.562
2023-12-27T02:13:23.734Z,987.5541
2023-12-27T02:14:23.743Z,987.5541
2023-12-27T02:15:23.786Z,987.5672
2023-12-27T02:16:23.753Z,987.5672
2023-12-27T02:17:23.755Z,987.6046
2023-12-27T02:18:23.874Z,987.6046
2023-12-27T02:19:23.920Z,987.6789
2023-12-27T02:20:23.744Z,987.6789
2023-12-27T02:21:23.768Z,987.7445
2023-12-27T02:22:23.745Z,987.7445
2023-12-27T02:23:23.742Z,987.8262
2023-12-27T02:24:23.779Z,987.8262
2023-12-27T02:25:23.757Z,987.8801
2023-12-27T02:26:23.744Z,987.8801
2023-12-27T02:27:23.839Z,987.8892
2023-12-27T02:28:23.748Z,987.8892
2023-12-27T02:29:23.740Z,987.8901
2023-12-27T02:30:23.878Z,987.8901
2023-12-27T02:31:23.777Z,987.9238
2023-12-27T02:32:23.741Z,987.9238
2023-12-27T02:33:23.928Z,987.9922
2023-12-27T02:34:23.855Z,987.9922
2023-12-27T02:35:23.874Z,988.0513
2023-12-27T02:36:23.783Z,988.0513
2023-12-27T02:37:23.749Z,988.0623
2023-12-27T02:38:23.818Z,988.0623
2023-12-27T02:39:23.770Z,988.0826
2023-12-27T02:40:23.765Z,988.0826
2023-12-27T02:41:23.741Z,988.1127
2023-12-27T02:42:23.769Z,988.1127
2023-12-27T02:43:23.741Z,988.1373
2023-12-27T02:44:23.745Z,988.1373
2023-12-27T02:45:23.793Z,988.2255
2023-12-27T02:46:23.744Z,988.2255
2023-12-27T02:47:23.747Z,988.2636
2023-12-27T02:48:23.940Z,988.2636
2023-12-27T02:49:23.848Z,988.3215
2023-12-27T02:50:23.778Z,988.3215
2023-12-27T02:51:23.764Z,988.4114
2023-12-27T02:52:23.752Z,988.4114
2023-12-27T02:53:23.748Z,988.4883
2023-12-27T02:54:23.788Z,988.4883
2023-12-27T02:55:23.759Z,988.5477
2023-12-27T02:56:23.745Z,988.5477
2023-12-27T02:57:23.771Z,988.6242
2023-12-27T02:58:23.744Z,988.6242
2023-12-27T02:59:23.744Z,988.7019
2023-12-27T03:00:23.796Z,988.7019
2023-12-27T03:01:23.766Z,988.7618
2023-12-27T03:02:23.807Z,988.7618
2023-12-27T03:03:23.804Z,988.7915
2023-12-27T03:04:23.753Z,988.7915
2023-12-27T03:05:23.791Z,988.7915
2023-12-27T03:06:23.773Z,988.7915
2023-12-27T03:07:23.746Z,988.8108
2023-12-27T03:08:23.748Z,988.8108
2023-12-27T03:09:23.770Z,988.8516
2023-12-27T03:10:23.751Z,988.8516
2023-12-27T03:11:23.799Z,988.8491
2023-12-27T03:12:23.763Z,988.8491
2023-12-27T03:13:23.754Z,988.8297
2023-12-27T03:14:23.757Z,988.8297
2023-12-27T03:15:23.785Z,988.8127
2023-12-27T03:16:23.767Z,988.8127
2023-12-27T03:17:23.815Z,988.7996
2023-12-27T03:18:23.896Z,988.7996
2023-12-27T03:19:23.819Z,988.7744
2023-12-27T03:20:23.760Z,988.7744
2023-12-27T03:21:23.786Z,988.7849
2023-12-27T03:22:23.747Z,988.7849
2023-12-27T03:23:23.754Z,988.8416
2023-12-27T03:24:23.781Z,988.8416
2023-12-27T03:25:23.745Z,988.8416
2023-12-27T03:26:23.747Z,988.8416
2023-12-27T03:27:23.782Z,988.875
2023-12-27T03:28:23.752Z,988.875
2023-12-27T03:29:23.752Z,988.8979
2023-12-27T03:30:23.850Z,988.8979
2023-12-27T03:31:23.772Z,988.8893
2023-12-27T03:32:23.780Z,988.8893
2023-12-27T03:33:23.867Z,988.9023
2023-12-27T03:34:23.925Z,988.9023
2023-12-27T03:35:23.754Z,988.9272
2023-12-27T03:36:23.822Z,988.9272
2023-12-27T03:37:23.748Z,988.9272
2023-12-27T03:38:23.745Z,988.9313
2023-12-27T03:39:23.772Z,988.9313
2023-12-27T03:40:23.756Z,988.927
2023-12-27T03:41:23.746Z,988.927
2023-12-27T03:42:23.779Z,988.9464
2023-12-27T03:43:23.752Z,988.9464
2023-12-27T03:44:23.748Z,988.9573
2023-12-27T03:45:23.793Z,988.9573
2023-12-27T03:46:23.749Z,988.9573
2023-12-27T03:47:23.763Z,988.9573
2023-12-27T03:48:23.928Z,988.9625
2023-12-27T03:49:23.847Z,988.9625
2023-12-27T03:50:23.757Z,989.008
2023-12-27T03:51:23.813Z,989.008
2023-12-27T03:52:23.763Z,989.0298
2023-12-27T03:53:23.751Z,989.0298
2023-12-27T03:54:23.789Z,989.05
2023-12-27T03:55:23.761Z,989.05
2023-12-27T03:56:23.762Z,989.0494
2023-12-27T03:57:23.774Z,989.0494
2023-12-27T03:58:23.754Z,989.024
2023-12-27T03:59:23.754Z,989.024
2023-12-27T04:00:23.777Z,989.0103
2023-12-27T04:01:23.799Z,989.0103
2023-12-27T04:02:23.762Z,989.0267
2023-12-27T04:03:23.880Z,989.0267
2023-12-27T04:04:23.764Z,989.0497
2023-12-27T04:05:23.792Z,989.0497
2023-12-27T04:06:23.787Z,989.0595
2023-12-27T04:07:23.772Z,989.0595
2023-12-27T04:08:23.766Z,989.05
2023-12-27T04:09:23.773Z,989.05
2023-12-27T04:10:23.767Z,989.0438
2023-12-27T04:11:23.762Z,989.0438
2023-12-27T04:12:23.827Z,989.0463
2023-12-27T04:13:23.756Z,989.0463
2023-12-27T04:14:23.763Z,989.0563
2023-12-27T04:15:23.789Z,989.0563
2023-12-27T04:16:23.766Z,989.0563
2023-12-27T04:17:23.768Z,989.0742
2023-12-27T04:18:23.841Z,989.0742
2023-12-27T04:19:23.857Z,989.1036
2023-12-27T04:20:23.763Z,989.1036
2023-12-27T04:21:23.801Z,989.1206
2023-12-27T04:22:23.762Z,989.1206
2023-12-27T04:23:23.773Z,989.1606
2023-12-27T04:24:23.835Z,989.1606
2023-12-27T04:25:23.763Z,989.2103
2023-12-27T04:26:23.766Z,989.2103
2023-12-27T04:27:23.773Z,989.2103
2023-12-27T04:28:23.790Z,989.2653
2023-12-27T04:29:23.760Z,989.2653
2023-12-27T04:30:23.827Z,989.2714
2023-12-27T04:31:23.776Z,989.2714
2023-12-27T04:32:23.764Z,989.2709
2023-12-27T04:33:23.902Z,989.2709
2023-12-27T04:34:23.844Z,989.2709
2023-12-27T04:35:23.761Z,989.2759
2023-12-27T04:36:23.867Z,989.2759
2023-12-27T04:37:23.820Z,989.2747
2023-12-27T04:38:23.768Z,989.2747
2023-12-27T04:39:23.784Z,989.2908
2023-12-27T04:40:23.768Z,989.2908
2023-12-27T04:41:23.769Z,989.307
2023-12-27T04:42:23.795Z,989.307
2023-12-27T04:43:23.772Z,989.307
2023-12-27T04:44:23.770Z,989.3233
2023-12-27T04:45:23.820Z,989.3233
2023-12-27T04:46:23.779Z,989.3503
2023-12-27T04:47:23.798Z,989.3503
2023-12-27T04:48:23.939Z,989.3597
2023-12-27T04:49:23.991Z,989.3597
2023-12-27T04:50:23.877Z,989.3728
2023-12-27T04:51:24.957Z,989.3728
2023-12-27T04:52:23.769Z,989.3728
2023-12-27T04:53:23.766Z,989.3995
2023-12-27T04:54:23.796Z,989.3995
2023-12-27T04:55:23.773Z,989.415
2023-12-27T04:56:23.768Z,989.415
2023-12-27T04:57:23.804Z,989.428
2023-12-27T04:58:23.775Z,989.428
2023-12-27T04:59:23.778Z,989.4313
2023-12-27T05:00:23.781Z,989.4313
2023-12-27T05:01:23.786Z,989.4624
2023-12-27T05:02:23.777Z,989.4624
2023-12-27T05:03:23.908Z,989.4705
2023-12-27T05:04:24.057Z,989.4705
2023-12-27T05:05:23.784Z,989.467
2023-12-27T05:06:23.846Z,989.467
2023-12-27T05:07:23.766Z,989.476
2023-12-27T05:08:23.779Z,989.476
2023-12-27T05:09:23.802Z,989.5159
2023-12-27T05:10:23.785Z,989.5159
2023-12-27T05:11:23.781Z,989.5248
2023-12-27T05:12:23.776Z,989.5248
2023-12-27T05:13:23.780Z,989.5211
2023-12-27T05:14:23.777Z,989.5211
2023-12-27T05:15:23.802Z,989.5211
2023-12-27T05:16:23.789Z,989.5082
2023-12-27T05:17:23.796Z,989.5082
2023-12-27T05:18:23.840Z,989.5006
2023-12-27T05:19:24.205Z,989.5006
2023-12-27T05:20:23.782Z,989.4631
2023-12-27T05:21:23.824Z,989.4631
2023-12-27T05:22:23.789Z,989.4542
2023-12-27T05:23:23.774Z,989.4542
2023-12-27T05:24:23.799Z,989.4604
2023-12-27T05:25:23.783Z,989.4604
2023-12-27T05:26:23.778Z,989.5046
2023-12-27T05:27:23.806Z,989.5046
2023-12-27T05:28:23.779Z,989.5386
2023-12-27T05:29:23.780Z,989.5386
2023-12-27T05:30:23.914Z,989.5762
2023-12-27T05:31:23.865Z,989.5762
2023-12-27T05:32:23.797Z,989.5762
2023-12-27T05:33:23.893Z,989.59
2023-12-27T05:34:23.900Z,989.59
2023-12-27T05:35:23.784Z,989.6052
2023-12-27T05:36:23.821Z,989.6052
2023-12-27T05:37:23.778Z,989.6131
2023-12-27T05:38:23.790Z,989.6131
2023-12-27T05:39:23.802Z,989.6306
2023-12-27T05:40:23.783Z,989.6306
2023-12-27T05:41:23.799Z,989.6523
2023-12-27T05:42:23.831Z,989.6523
2023-12-27T05:43:23.794Z,989.6716
2023-12-27T05:44:23.785Z,989.6716
2023-12-27T05:45:23.794Z,989.6717
2023-12-27T05:46:23.795Z,989.6717
2023-12-27T05:47:23.836Z,989.6873
2023-12-27T05:48:23.894Z,989.6873
2023-12-27T05:49:23.969Z,989.6823
2023-12-27T05:50:23.791Z,989.6823
2023-12-27T05:51:23.820Z,989.6823
2023-12-27T05:52:23.819Z,989.6823
2023-12-27T05:53:23.806Z,989.71
2023-12-27T05:54:23.805Z,989.71
2023-12-27T05:55:23.790Z,989.7115
2023-12-27T05:56:23.786Z,989.7115
2023-12-27T05:57:23.832Z,989.7067
2023-12-27T05:58:23.797Z,989.7067
2023-12-27T05:59:23.786Z,989.7067
2023-12-27T06:00:23.844Z,989.6986
2023-12-27T06:01:23.879Z,989.6986
2023-12-27T06:02:23.790Z,989.6828
2023-12-27T06:03:23.947Z,989.6828
2023-12-27T06:04:23.817Z,989.6728
2023-12-27T06:05:23.843Z,989.6728
2023-12-27T06:06:23.898Z,989.6975
2023-12-27T06:07:23.798Z,989.6975
2023-12-27T06:08:23.797Z,989.7488
2023-12-27T06:09:23.816Z,989.7488
2023-12-27T06:10:23.804Z,989.8047
2023-12-27T06:11:23.790Z,989.8047
2023-12-27T06:12:23.793Z,989.8047
2023-12-27T06:13:23.805Z,989.837
2023-12-27T06:14:23.793Z,989.837
2023-12-27T06:15:23.801Z,989.8688
2023-12-27T06:16:23.796Z,989.8688
2023-12-27T06:17:23.815Z,989.8826
2023-12-27T06:18:23.906Z,989.8826
2023-12-27T06:19:23.892Z,989.9
2023-12-27T06:20:23.833Z,989.9
2023-12-27T06:21:23.824Z,989.9162
2023-12-27T06:22:23.800Z,989.9162
2023-12-27T06:23:23.796Z,989.935
2023-12-27T06:24:23.819Z,989.935
2023-12-27T06:25:23.811Z,989.935
2023-12-27T06:26:23.794Z,989.9422
2023-12-27T06:27:23.810Z,989.9422
2023-12-27T06:28:23.799Z,989.9738
2023-12-27T06:29:23.794Z,989.9738
2023-12-27T06:30:23.934Z,989.9844
2023-12-27T06:31:25.798Z,989.9844
2023-12-27T06:32:25.082Z,989.9933
2023-12-27T06:33:23.980Z,989.9933
2023-12-27T06:34:23.866Z,989.9961
2023-12-27T06:35:23.800Z,989.9961
2023-12-27T06:36:23.833Z,989.9973
2023-12-27T06:37:23.809Z,989.9973
2023-12-27T06:38:23.792Z,990.0094
2023-12-27T06:39:23.833Z,990.0094
2023-12-27T06:40:23.794Z,990.0104
2023-12-27T06:41:23.795Z,990.0104
2023-12-27T06:42:23.855Z,990.0186
2023-12-27T06:43:23.791Z,990.0186
2023-12-27T06:44:23.798Z,990.0261
2023-12-27T06:45:23.871Z,990.0261
2023-12-27T06:46:23.828Z,990.0883
2023-12-27T06:47:23.791Z,990.0883
2023-12-27T06:48:23.881Z,990.0883
2023-12-27T06:49:23.915Z,990.1105
2023-12-27T06:50:23.799Z,990.1105
2023-12-27T06:51:23.816Z,990.2056
2023-12-27T06:52:23.793Z,990.2056
2023-12-27T06:53:23.789Z,990.228
2023-12-27T06:54:23.850Z,990.228
2023-12-27T06:55:23.799Z,990.2475
2023-12-27T06:56:23.796Z,990.2475
2023-12-27T06:57:23.850Z,990.2736
2023-12-27T06:58:23.799Z,990.2736
2023-12-27T06:59:23.792Z,990.3161
2023-12-27T07:00:23.837Z,990.3161
2023-12-27T07:01:23.826Z,990.3425
2023-12-27T07:02:23.796Z,990.3425
2023-12-27T07:03:23.960Z,990.3499
2023-12-27T07:04:23.803Z,990.3499
2023-12-27T07:05:23.956Z,990.3499
2023-12-27T07:06:23.863Z,990.3499
2023-12-27T07:07:23.801Z,990.3425
2023-12-27T07:08:23.799Z,990.3425
2023-12-27T07:09:23.828Z,990.3156
2023-12-27T07:10:23.802Z,990.3156
2023-12-27T07:11:23.806Z,990.2902
2023-12-27T07:12:23.878Z,990.2902
2023-12-27T07:13:23.825Z,990.2902
2023-12-27T07:14:23.812Z,990.2952
2023-12-27T07:15:23.812Z,990.2952
2023-12-27T07:16:23.806Z,990.303
2023-12-27T07:17:23.858Z,990.303
2023-12-27T07:18:23.954Z,990.3027
2023-12-27T07:19:23.940Z,990.3027
2023-12-27T07:20:23.805Z,990.2667
2023-12-27T07:21:23.836Z,990.2667
2023-12-27T07:22:23.822Z,990.2445
2023-12-27T07:23:23.803Z,990.2445
2023-12-27T07:24:23.923Z,990.1954
2023-12-27T07:25:23.802Z,990.1954
2023-12-27T07:26:23.842Z,990.1841
2023-12-27T07:27:23.910Z,990.1841
2023-12-27T07:28:23.804Z,990.1863
2023-12-27T07:29:23.803Z,990.1863
2023-12-27T07:30:23.969Z,990.2273
2023-12-27T07:31:23.888Z,990.2273
2023-12-27T07:32:23.811Z,990.2866
2023-12-27T07:33:23.873Z,990.2866
2023-12-27T07:34:23.908Z,990.3203
2023-12-27T07:35:23.808Z,990.3203
2023-12-27T07:36:23.834Z,990.3627
2023-12-27T07:37:23.809Z,990.3627
2023-12-27T07:38:23.807Z,990.3633
2023-12-27T07:39:23.836Z,990.3633
2023-12-27T07:40:23.809Z,990.3484
2023-12-27T07:41:23.814Z,990.3484
2023-12-27T07:42:23.845Z,990.3484
2023-12-27T07:43:23.814Z,990.2932
2023-12-27T07:44:23.826Z,990.2932
2023-12-27T07:45:24.123Z,990.2874
2023-12-27T07:46:23.813Z,990.2874
2023-12-27T07:47:23.841Z,990.2874
2023-12-27T07:48:24.165Z,990.3419
2023-12-27T07:49:23.911Z,990.3419
2023-12-27T07:50:23.810Z,990.3803
2023-12-27T07:51:23.831Z,990.3803
2023-12-27T07:52:23.810Z,990.3822
2023-12-27T07:53:23.808Z,990.3822
2023-12-27T07:54:23.845Z,990.4078
2023-12-27T07:55:23.821Z,990.4078
2023-12-27T07:56:23.814Z,990.4517
2023-12-27T07:57:23.872Z,990.4517
2023-12-27T07:58:23.830Z,990.454
2023-12-27T07:59:23.847Z,990.454
2023-12-27T08:00:23.836Z,990.4236
2023-12-27T08:01:26.670Z,990.4236
2023-12-27T08:02:26.100Z,990.3647
2023-12-27T08:03:23.949Z,990.3647
2023-12-27T08:04:23.935Z,990.3583
2023-12-27T08:05:23.822Z,990.3583
2023-12-27T08:06:24.110Z,990.3628
2023-12-27T08:07:23.815Z,990.3628
2023-12-27T08:08:23.821Z,990.3535
2023-12-27T08:09:23.879Z,990.3535
2023-12-27T08:10:23.819Z,990.3411
2023-12-27T08:11:23.821Z,990.3411
2023-12-27T08:12:23.851Z,990.3337
2023-12-27T08:13:23.835Z,990.3337
2023-12-27T08:14:23.837Z,990.2687
2023-12-27T08:15:23.868Z,990.2687
2023-12-27T08:16:23.828Z,990.2346
2023-12-27T08:17:23.858Z,990.2346
2023-12-27T08:18:24.015Z,990.2106
2023-12-27T08:19:23.914Z,990.2106
2023-12-27T08:20:25.218Z,990.2305
2023-12-27T08:21:23.863Z,990.2305
2023-12-27T08:22:23.823Z,990.2603
2023-12-27T08:23:23.851Z,990.2603
2023-12-27T08:24:23.843Z,990.2603
2023-12-27T08:25:23.840Z,990.3284
2023-12-27T08:26:23.831Z,990.3284
2023-12-27T08:27:23.844Z,990.3768
2023-12-27T08:28:23.824Z,990.3768
2023-12-27T08:29:23.834Z,990.4358
2023-12-27T08:30:23.939Z,990.4358
2023-12-27T08:31:23.864Z,990.4894
2023-12-27T08:32:23.827Z,990.4894
2023-12-27T08:33:23.882Z,990.485
2023-12-27T08:34:23.919Z,990.485
2023-12-27T08:35:23.827Z,990.4723
2023-12-27T08:36:23.865Z,990.4723
2023-12-27T08:37:23.866Z,990.4897
2023-12-27T08:38:23.887Z,990.4897
2023-12-27T08:39:23.873Z,990.4995
2023-12-27T08:40:23.833Z,990.4995
2023-12-27T08:41:23.833Z,990.4949
2023-12-27T08:42:23.884Z,990.4949
2023-12-27T08:43:23.831Z,990.4695
2023-12-27T08:44:23.832Z,990.4695
2023-12-27T08:45:23.932Z,990.4553
2023-12-27T08:46:23.854Z,990.4553
2023-12-27T08:47:23.921Z,990.42
2023-12-27T08:48:24.094Z,990.42
2023-12-27T08:49:23.902Z,990.4068
2023-12-27T08:50:23.847Z,990.4068
2023-12-27T08:51:23.931Z,990.4056
2023-12-27T08:52:23.829Z,990.4056
2023-12-27T08:53:23.832Z,990.3995
2023-12-27T08:54:23.872Z,990.3995
2023-12-27T08:55:23.825Z,990.4006
2023-12-27T08:56:23.829Z,990.4006
2023-12-27T08:57:23.849Z,990.4185
2023-12-27T08:58:23.827Z,990.4185
2023-12-27T08:59:23.831Z,990.4512
2023-12-27T09:00:23.891Z,990.4512
2023-12-27T09:01:23.911Z,990.4528
2023-12-27T09:02:23.832Z,990.4528
2023-12-27T09:03:23.935Z,990.4465
2023-12-27T09:04:25.423Z,990.4465
2023-12-27T09:05:23.869Z,990.4389
2023-12-27T09:06:23.975Z,990.4389
2023-12-27T09:07:23.842Z,990.454
2023-12-27T09:08:23.841Z,990.454
2023-12-27T09:09:23.869Z,990.454
2023-12-27T09:10:23.837Z,990.5044
2023-12-27T09:11:40.279Z,990.5044
2023-12-27T09:12:25.103Z,990.5089
2023-12-27T09:13:23.835Z,990.5089
2023-12-27T09:14:23.831Z,990.5136
2023-12-27T09:15:26.688Z,990.5136
2023-12-27T09:16:25.011Z,990.4867
2023-12-27T09:17:23.909Z,990.4867
2023-12-27T09:18:23.992Z,990.4644
2023-12-27T09:19:23.922Z,990.4644
2023-12-27T09:20:23.832Z,990.4432
2023-12-27T09:21:23.855Z,990.4432
2023-12-27T09:22:23.858Z,990.4231
2023-12-27T09:23:23.838Z,990.4231
2023-12-27T09:24:23.861Z,990.4327
2023-12-27T09:25:23.842Z,990.4327
2023-12-27T09:26:23.836Z,990.4517
2023-12-27T09:27:23.881Z,990.4517
2023-12-27T09:28:23.853Z,990.48
2023-12-27T09:29:23.855Z,990.48
2023-12-27T09:30:23.947Z,990.5022
2023-12-27T09:31:23.990Z,990.5022
2023-12-27T09:32:24.027Z,990.5023
2023-12-27T09:33:24.005Z,990.5023
2023-12-27T09:34:24.108Z,990.5019
2023-12-27T09:35:23.848Z,990.5019
2023-12-27T09:36:23.885Z,990.5019
2023-12-27T09:37:23.838Z,990.5023
2023-12-27T09:38:23.852Z,990.5023
2023-12-27T09:39:23.893Z,990.4944
2023-12-27T09:40:23.853Z,990.4944
2023-12-27T09:41:23.878Z,990.5042
2023-12-27T09:42:23.913Z,990.5042
2023-12-27T09:43:23.839Z,990.5123
2023-12-27T09:44:23.840Z,990.5123
2023-12-27T09:45:23.900Z,990.5123
2023-12-27T09:46:23.844Z,990.5297
2023-12-27T09:47:23.838Z,990.5297
2023-12-27T09:48:23.896Z,990.5215
2023-12-27T09:49:23.918Z,990.5215
2023-12-27T09:50:23.851Z,990.5278
2023-12-27T09:51:24.030Z,990.5278
2023-12-27T09:52:23.854Z,990.5479
2023-12-27T09:53:23.842Z,990.5479
2023-12-27T09:54:23.862Z,990.5619
2023-12-27T09:55:23.848Z,990.5619
2023-12-27T09:56:23.841Z,990.5631
2023-12-27T09:57:23.873Z,990.5631
2023-12-27T09:58:23.847Z,990.5668
2023-12-27T09:59:23.849Z,990.5668
2023-12-27T10:00:23.881Z,990.5693
2023-12-27T10:01:23.861Z,990.5693
2023-12-27T10:02:23.887Z,990.5693
2023-12-27T10:03:23.945Z,990.5775
2023-12-27T10:04:23.858Z,990.5775
2023-12-27T10:05:23.964Z,990.5829
2023-12-27T10:06:23.885Z,990.5829
2023-12-27T10:07:23.992Z,990.5541
2023-12-27T10:08:23.843Z,990.5541
2023-12-27T10:09:23.884Z,990.5475
2023-12-27T10:10:27.771Z,990.5475
2023-12-27T10:11:25.390Z,990.5544
2023-12-27T10:12:23.871Z,990.5544
2023-12-27T10:13:23.849Z,990.5544
2023-12-27T10:14:23.852Z,990.5544
2023-12-27T10:15:24.010Z,990.5488
2023-12-27T10:16:23.858Z,990.5488
2023-12-27T10:17:23.848Z,990.5497
2023-12-27T10:18:23.982Z,990.5497
2023-12-27T10:19:23.971Z,990.5497
2023-12-27T10:20:23.850Z,990.5574
2023-12-27T10:21:23.880Z,990.5574
2023-12-27T10:22:23.855Z,990.5577
2023-12-27T10:23:23.858Z,990.5577
2023-12-27T10:24:23.956Z,990.565
2023-12-27T10:25:23.848Z,990.565
2023-12-27T10:26:23.853Z,990.5591
2023-12-27T10:27:23.860Z,990.5591
2023-12-27T10:28:23.856Z,990.5744
2023-12-27T10:29:23.858Z,990.5744
2023-12-27T10:30:23.922Z,990.6005
2023-12-27T10:31:23.990Z,990.6005
2023-12-27T10:32:23.891Z,990.6277
2023-12-27T10:33:27.898Z,990.6277
2023-12-27T10:34:25.341Z,990.6301
2023-12-27T10:35:23.860Z,990.6301
2023-12-27T10:36:23.868Z,990.6301
2023-12-27T10:37:23.859Z,990.6356
2023-12-27T10:38:23.892Z,990.6356
2023-12-27T10:39:23.885Z,990.6487
2023-12-27T10:40:23.856Z,990.6487
2023-12-27T10:41:23.864Z,990.615
2023-12-27T10:42:23.878Z,990.615
2023-12-27T10:43:23.857Z,990.6164
2023-12-27T10:44:23.860Z,990.6164
2023-12-27T10:45:23.923Z,990.6227
2023-12-27T10:46:23.886Z,990.6227
2023-12-27T10:47:23.855Z,990.6373
2023-12-27T10:48:23.962Z,990.6373
2023-12-27T10:49:24.046Z,990.6164
2023-12-27T10:50:23.861Z,990.6164
2023-12-27T10:51:23.894Z,990.6131
2023-12-27T10:52:23.860Z,990.6131
2023-12-27T10:53:23.858Z,990.605
2023-12-27T10:54:23.900Z,990.605
2023-12-27T10:55:23.857Z,990.6113
2023-12-27T10:56:23.860Z,990.6113
2023-12-27T10:57:24.037Z,990.6321
2023-12-27T10:58:23.872Z,990.6321
2023-12-27T10:59:23.862Z,990.6408
2023-12-27T11:00:23.905Z,990.6408
2023-12-27T11:01:23.974Z,990.6408
2023-12-27T11:02:23.899Z,990.628
2023-12-27T11:03:23.962Z,990.628
2023-12-27T11:04:23.973Z,990.6429
2023-12-27T11:05:23.922Z,990.6429
2023-12-27T11:06:24.175Z,990.6577
2023-12-27T11:07:23.866Z,990.6577
2023-12-27T11:08:23.868Z,990.6643
2023-12-27T11:09:23.885Z,990.6643
2023-12-27T11:10:23.868Z,990.6713
2023-12-27T11:11:23.880Z,990.6713
2023-12-27T11:12:23.929Z,990.6548
2023-12-27T11:13:23.877Z,990.6548
2023-12-27T11:14:23.871Z,990.6573
2023-12-27T11:15:23.926Z,990.6573
2023-12-27T11:16:23.892Z,990.6573
2023-12-27T11:17:23.870Z,990.6525
2023-12-27T11:18:24.000Z,990.6525
2023-12-27T11:19:23.926Z,990.6525
2023-12-27T11:20:23.873Z,990.6063
2023-12-27T11:21:23.902Z,990.6063
2023-12-27T11:22:23.875Z,990.5591
2023-12-27T11:23:23.872Z,990.5591
2023-12-27T11:24:23.891Z,990.5347
2023-12-27T11:25:23.902Z,990.5347
2023-12-27T11:26:23.874Z,990.5313
2023-12-27T11:27:23.907Z,990.5313
2023-12-27T11:28:23.886Z,990.533
2023-12-27T11:29:23.882Z,990.533
2023-12-27T11:30:23.937Z,990.533
2023-12-27T11:31:24.023Z,990.533
2023-12-27T11:32:23.894Z,990.5369
2023-12-27T11:33:24.188Z,990.5369
2023-12-27T11:34:23.905Z,990.5417
2023-12-27T11:35:23.876Z,990.5417
2023-12-27T11:36:23.910Z,990.5636
2023-12-27T11:37:23.875Z,990.5636
2023-12-27T11:38:23.882Z,990.5948
2023-12-27T11:39:23.925Z,990.5948
2023-12-27T11:40:23.952Z,990.6067
2023-12-27T11:41:23.875Z,990.6067
2023-12-27T11:42:24.100Z,990.6067
2023-12-27T11:43:23.900Z,990.6067
2023-12-27T11:44:23.878Z,990.5939
2023-12-27T11:45:23.928Z,990.5939
2023-12-27T11:46:23.878Z,990.5642
2023-12-27T11:47:23.931Z,990.5642